Hitra — 9HRO9 — position and weather

sailwx.info

Track history (hours):
 
Tides and Currents Weather Stations Pressure Air Temp Water Temp Dewpoint Dewpoint Depression Visibility Wind Speed Wind Dir Waves Ship Positions

Hitra

Last reported at 2018-Jun-18 11:30 UTC. Time now 2018-Jun-18 11:41 UTC.
Position N 49°27' E 000°02'.

Length 107 m; draft 5.3 m.

Type: Ship. MMSI: 249421000.

Date/timePositionNaut miles runAvg speedWind from/ knotsBaromVisibWave heightAir tempDewpointWater temp
2018-Jun-18 11:30N 49°27' E 000°02'510.2
2018-Jun-18 11:01N 49°29' W 000°06'1 2.0
2018-Jun-18 10:29N 49°28' W 000°05'0 0.0
2018-Jun-18 09:59N 49°28' W 000°05'0 0.0
2018-Jun-18 09:29N 49°28' W 000°05'0 0.0
2018-Jun-18 08:59N 49°28' W 000°05'0 0.1
2018-Jun-18 08:29N 49°28' W 000°05'0 0.1
2018-Jun-18 07:59N 49°28' W 000°05'0 0.0
2018-Jun-18 07:29N 49°28' W 000°05'0 0.0
2018-Jun-18 06:59N 49°28' W 000°05'0 0.0
2018-Jun-18 06:29N 49°28' W 000°05'0 0.0
2018-Jun-18 05:59N 49°28' W 000°05'0 0.0
2018-Jun-18 05:29N 49°28' W 000°05'0 0.0
2018-Jun-18 04:59N 49°28' W 000°05'0 0.1
2018-Jun-18 04:29N 49°28' W 000°05'0 0.2
2018-Jun-18 03:59N 49°28' W 000°05'0 0.0
2018-Jun-18 03:29N 49°28' W 000°05'0 0.0
2018-Jun-18 02:59N 49°28' W 000°05'0 0.0
2018-Jun-18 02:29N 49°28' W 000°05'0 0.0
2018-Jun-18 01:59N 49°28' W 000°05'0 0.0
2018-Jun-18 01:29N 49°28' W 000°05'0 0.0
2018-Jun-18 00:59N 49°28' W 000°05'0 0.0
2018-Jun-18 00:29N 49°28' W 000°05'0 0.0
2018-Jun-17 23:59N 49°28' W 000°05'0 0.0
2018-Jun-17 23:29N 49°28' W 000°05'0 0.0
2018-Jun-17 22:59N 49°28' W 000°05'0 0.0
2018-Jun-17 22:29N 49°28' W 000°05'0 0.0
2018-Jun-17 21:59N 49°28' W 000°05'0 0.0
2018-Jun-17 21:29N 49°28' W 000°05'0 0.0
2018-Jun-17 20:59N 49°28' W 000°05'0 0.2
2018-Jun-17 20:29N 49°28' W 000°05'0 0.1
2018-Jun-17 19:59N 49°28' W 000°05'0 0.0
2018-Jun-17 19:29N 49°28' W 000°05'0 0.0
2018-Jun-17 18:59N 49°28' W 000°05'0 0.0
2018-Jun-17 18:29N 49°28' W 000°05'0 0.0
2018-Jun-17 17:59N 49°28' W 000°05'0 0.0
2018-Jun-17 17:29N 49°28' W 000°05'0 0.0
2018-Jun-17 16:59N 49°28' W 000°05'0 0.0
2018-Jun-17 16:29N 49°28' W 000°05'0 0.0
2018-Jun-17 15:59N 49°28' W 000°05'0 0.1
2018-Jun-17 15:29N 49°28' W 000°05'0 0.1
2018-Jun-17 14:59N 49°28' W 000°05'0 0.0
2018-Jun-17 14:29N 49°28' W 000°05'0 0.0
2018-Jun-17 13:59N 49°28' W 000°05'0 0.0
2018-Jun-17 13:29N 49°28' W 000°05'0 0.0
2018-Jun-17 12:59N 49°28' W 000°05'0 0.0
2018-Jun-17 12:26N 49°28' W 000°05'0 0.0
2018-Jun-17 11:59N 49°28' W 000°05'0 0.0
2018-Jun-17 11:29N 49°28' W 000°05'0 0.0
2018-Jun-17 10:59N 49°28' W 000°05'0 0.0
2018-Jun-17 10:29N 49°28' W 000°05'0 0.0
2018-Jun-17 09:59N 49°28' W 000°05'0 0.1
2018-Jun-17 09:30N 49°28' W 000°05'2 4.9
2018-Jun-17 09:00N 49°28' W 000°09'5 9.1
2018-Jun-17 08:30N 49°31' W 000°14'4 8.9
2018-Jun-17 08:00N 49°34' W 000°19'4 8.2
2018-Jun-17 07:30N 49°37' W 000°23'4 8.9
2018-Jun-17 07:00N 49°39' W 000°29'4 8.4
2018-Jun-17 06:30N 49°42' W 000°35'4 7.9
2018-Jun-17 05:58N 49°44' W 000°40'4 7.9
2018-Jun-17 05:30N 49°46' W 000°45'4 9.1
2018-Jun-17 05:00N 49°48' W 000°51'4 8.4
2018-Jun-17 04:30N 49°50' W 000°57'4 7.9
2018-Jun-17 03:58N 49°53' W 001°02'4 7.7
2018-Jun-17 03:30N 49°55' W 001°07'5 7.2
2018-Jun-17 02:52N 49°56' W 001°14'5 7.1
2018-Jun-17 02:10N 49°57' W 001°21'1 7.5
2018-Jun-17 01:59N 49°58' W 001°23'38 7.1
2018-Jun-16 20:32N 50°21' W 000°35'0 8.0
2018-Jun-16 20:28N 50°21' W 000°34'9 7.9
2018-Jun-16 19:23N 50°24' W 000°21'5 8.2
2018-Jun-16 18:44N 50°25' W 000°13'3 8.7
2018-Jun-16 18:20N 50°26' W 000°08'17 9.1
2018-Jun-16 16:31N 50°31' E 000°17'0 8.9
2018-Jun-16 16:30N 50°31' E 000°17'5 9.7
2018-Jun-16 15:58N 50°33' E 000°25'5 9.5
2018-Jun-16 15:30N 50°34' E 000°32'510.2
2018-Jun-16 15:00N 50°36' E 000°39'510.2
2018-Jun-16 14:30N 50°39' E 000°45'5 9.7
2018-Jun-16 14:00N 50°42' E 000°51'5 9.0
2018-Jun-16 13:30N 50°45' E 000°57'4 8.6
2018-Jun-16 13:00N 50°48' E 001°02'4 8.6
2018-Jun-16 12:30N 50°50' E 001°08'4 8.4
2018-Jun-16 12:00N 50°53' E 001°13'4 8.8
2018-Jun-16 11:30N 50°55' E 001°19'5 9.8
2018-Jun-16 11:00N 50°59' E 001°24'611.7
2018-Jun-16 10:30N 51°03' E 001°30'713.3
2018-Jun-16 10:00N 51°08' E 001°37'612.2
2018-Jun-16 09:30N 51°13' E 001°42'612.9
2018-Jun-16 09:00N 51°20' E 001°39'612.0
2018-Jun-16 08:30N 51°24' E 001°33'510.9
2018-Jun-16 08:00N 51°28' E 001°27'612.3
2018-Jun-16 07:30N 51°29' E 001°17'612.5
2018-Jun-16 07:00N 51°29' E 001°07'612.4
2018-Jun-16 06:30N 51°29' E 000°57'713.2
2018-Jun-16 06:01N 51°29' E 000°46'714.2
2018-Jun-16 05:30N 51°30' E 000°35'611.6
2018-Jun-16 05:00N 51°28' E 000°27'510.3
2018-Jun-16 04:31N 51°28' E 000°18'2 3.1
2018-Jun-16 04:00N 51°28' E 000°16'0 0.0
2018-Jun-16 03:30N 51°28' E 000°16'0 0.0
2018-Jun-16 03:01N 51°28' E 000°16'0 0.0
2018-Jun-16 02:31N 51°28' E 000°16'0 0.0
2018-Jun-16 02:00N 51°28' E 000°16'0 0.0
2018-Jun-16 01:31N 51°28' E 000°16'0 0.0
2018-Jun-16 01:00N 51°28' E 000°16'0 0.0
2018-Jun-16 00:30N 51°28' E 000°16'0 0.0
2018-Jun-16 00:00N 51°28' E 000°16'0 0.0
2018-Jun-15 23:31N 51°28' E 000°16'0 0.0
2018-Jun-15 23:01N 51°28' E 000°16'0 0.0
2018-Jun-15 22:30N 51°28' E 000°16'0 0.0
2018-Jun-15 22:00N 51°28' E 000°16'0 0.0
2018-Jun-15 21:31N 51°28' E 000°16'0 0.0
2018-Jun-15 21:01N 51°28' E 000°16'0 0.0
2018-Jun-15 20:31N 51°28' E 000°16'0 0.0
2018-Jun-15 20:00N 51°28' E 000°16'0 0.0
2018-Jun-15 19:31N 51°28' E 000°16'0 0.0
2018-Jun-15 19:01N 51°28' E 000°16'0 0.0
2018-Jun-15 18:31N 51°28' E 000°16'0 0.0
2018-Jun-15 18:00N 51°28' E 000°16'0 0.0
2018-Jun-15 17:31N 51°28' E 000°16'0 0.0
2018-Jun-15 17:01N 51°28' E 000°16'0 0.0
2018-Jun-15 16:30N 51°28' E 000°16'0 0.0
2018-Jun-15 16:00N 51°28' E 000°16'0 0.0
2018-Jun-15 15:31N 51°28' E 000°16'0 0.0
2018-Jun-15 15:01N 51°28' E 000°16'0 0.0
2018-Jun-15 14:30N 51°28' E 000°16'0 0.0
2018-Jun-15 14:00N 51°28' E 000°16'0 0.0
2018-Jun-15 13:31N 51°28' E 000°16'0 0.0
2018-Jun-15 13:01N 51°28' E 000°16'0 0.0
2018-Jun-15 12:30N 51°28' E 000°16'0 0.0
2018-Jun-15 12:01N 51°28' E 000°16'0 0.0
2018-Jun-15 11:31N 51°28' E 000°16'0 0.0
2018-Jun-15 11:01N 51°28' E 000°16'0 0.0
2018-Jun-15 10:30N 51°28' E 000°16'0 0.0
2018-Jun-15 10:00N 51°28' E 000°16'0 0.0
2018-Jun-15 09:31N 51°28' E 000°16'0 0.0
2018-Jun-15 09:01N 51°28' E 000°16'0 0.0
2018-Jun-15 08:31N 51°28' E 000°16'0 0.0
2018-Jun-15 08:01N 51°28' E 000°16'0 0.0
2018-Jun-15 07:31N 51°28' E 000°16'0 0.0
2018-Jun-15 07:01N 51°28' E 000°16'0 0.0
2018-Jun-15 06:31N 51°28' E 000°16'0 0.0
2018-Jun-15 06:00N 51°28' E 000°16'0 0.0
2018-Jun-15 05:30N 51°28' E 000°16'0 0.0
2018-Jun-15 05:01N 51°28' E 000°16'0 0.0
2018-Jun-15 04:30N 51°28' E 000°16'0 0.0
2018-Jun-15 04:00N 51°28' E 000°16'0 0.0
2018-Jun-15 03:31N 51°28' E 000°16'0 0.0
2018-Jun-15 03:01N 51°28' E 000°16'0 0.1
2018-Jun-15 02:31N 51°28' E 000°16'2 4.2
2018-Jun-15 02:01N 51°28' E 000°19'4 7.8
2018-Jun-15 01:30N 51°27' E 000°26'5 9.1
2018-Jun-15 01:01N 51°30' E 000°31'611.5
2018-Jun-15 00:30N 51°30' E 000°40'612.2
2018-Jun-15 00:00N 51°30' E 000°50'612.2
2018-Jun-14 23:31N 51°30' E 000°60'5 9.1
2018-Jun-14 23:00N 51°30' E 001°07'612.2
2018-Jun-14 22:30N 51°29' E 001°17'611.9
2018-Jun-14 22:00N 51°28' E 001°26'4 7.6
2018-Jun-14 21:30N 51°27' E 001°32'612.7
2018-Jun-14 21:00N 51°32' E 001°38'713.7
2018-Jun-14 20:30N 51°38' E 001°44'713.3
2018-Jun-14 20:00N 51°44' E 001°43'612.8
2018-Jun-14 19:30N 51°51' E 001°41'3 6.6
2018-Jun-14 19:00N 51°54' E 001°40'0 0.2
2018-Jun-14 18:30N 51°54' E 001°40'0 0.2
2018-Jun-14 18:00N 51°54' E 001°40'0 0.0
2018-Jun-14 17:30N 51°54' E 001°40'0 0.0
2018-Jun-14 17:00N 51°54' E 001°40'0 0.0
2018-Jun-14 16:30N 51°54' E 001°40'0 0.0
2018-Jun-14 16:00N 51°54' E 001°40'0 0.0
2018-Jun-14 15:30N 51°54' E 001°40'0 0.0
2018-Jun-14 15:00N 51°54' E 001°40'0 0.0
2018-Jun-14 14:30N 51°54' E 001°40'0 0.0
2018-Jun-14 14:00N 51°54' E 001°40'0 0.0
2018-Jun-14 13:30N 51°54' E 001°40'0 0.0
2018-Jun-14 13:00N 51°54' E 001°40'0 0.1
2018-Jun-14 12:30N 51°54' E 001°40'0 0.0
2018-Jun-14 12:00N 51°54' E 001°40'0 0.0
2018-Jun-14 11:30N 51°54' E 001°40'0 0.1
2018-Jun-14 11:00N 51°54' E 001°40'0 0.3
2018-Jun-14 10:30N 51°54' E 001°40'0 0.1
2018-Jun-14 10:00N 51°54' E 001°40'0 0.0
2018-Jun-14 09:30N 51°54' E 001°40'0 0.0
2018-Jun-14 09:00N 51°54' E 001°40'0 0.0
2018-Jun-14 08:30N 51°54' E 001°40'0 0.0
2018-Jun-14 08:00N 51°54' E 001°40'0 0.4
2018-Jun-14 07:30N 51°54' E 001°40'0 0.1
2018-Jun-14 07:00N 51°54' E 001°40'0 0.0
2018-Jun-14 06:30N 51°54' E 001°40'0 0.0
2018-Jun-14 06:00N 51°54' E 001°40'0 0.0
2018-Jun-14 05:30N 51°54' E 001°40'0 0.0
2018-Jun-14 05:00N 51°54' E 001°40'0 0.0
2018-Jun-14 04:30N 51°54' E 001°40'0 0.0
2018-Jun-14 04:00N 51°54' E 001°40'0 0.0
2018-Jun-14 03:30N 51°54' E 001°40'0 0.0
2018-Jun-14 03:00N 51°54' E 001°40'0 0.0
2018-Jun-14 02:30N 51°54' E 001°40'0 0.0
2018-Jun-14 02:00N 51°54' E 001°40'0 0.0
2018-Jun-14 01:30N 51°54' E 001°40'0 0.0
2018-Jun-14 01:00N 51°54' E 001°40'0 0.0
2018-Jun-14 00:30N 51°54' E 001°40'0 0.0
2018-Jun-14 00:00N 51°54' E 001°40'0 0.0
2018-Jun-13 23:30N 51°54' E 001°40'0 0.2
2018-Jun-13 23:00N 51°54' E 001°40'0 0.2
2018-Jun-13 22:30N 51°54' E 001°40'0 0.0
2018-Jun-13 22:00N 51°54' E 001°40'0 0.0
2018-Jun-13 21:30N 51°54' E 001°40'0 0.0
2018-Jun-13 21:00N 51°54' E 001°40'0 0.0
2018-Jun-13 20:30N 51°54' E 001°40'0 0.0
2018-Jun-13 20:00N 51°54' E 001°40'0 0.0
2018-Jun-13 19:30N 51°54' E 001°40'0 0.0
2018-Jun-13 18:57N 51°54' E 001°40'0 0.1
2018-Jun-13 18:30N 51°54' E 001°40'0 0.3
2018-Jun-13 18:00N 51°54' E 001°40'0 0.1
2018-Jun-13 17:30N 51°54' E 001°40'0 0.1
2018-Jun-13 17:00N 51°54' E 001°40'0 0.0
2018-Jun-13 16:30N 51°54' E 001°40'0 0.0
2018-Jun-13 16:00N 51°54' E 001°40'0 0.0
2018-Jun-13 15:30N 51°54' E 001°40'0 0.0
2018-Jun-13 15:00N 51°54' E 001°40'0 0.0
2018-Jun-13 14:30N 51°54' E 001°40'0 0.0
2018-Jun-13 14:00N 51°54' E 001°40'0 0.0
2018-Jun-13 13:30N 51°54' E 001°40'0 0.0
2018-Jun-13 13:00N 51°54' E 001°40'0 0.1
2018-Jun-13 12:30N 51°54' E 001°40'0 0.0
2018-Jun-13 12:00N 51°54' E 001°40'0 0.1
2018-Jun-13 11:30N 51°54' E 001°40'0 0.2
2018-Jun-13 11:00N 51°54' E 001°40'0 0.1
2018-Jun-13 10:30N 51°54' E 001°40'0 0.0
2018-Jun-13 10:00N 51°54' E 001°40'0 0.0
2018-Jun-13 09:30N 51°54' E 001°40'0 0.0
2018-Jun-13 09:00N 51°54' E 001°40'0 0.0
2018-Jun-13 08:30N 51°54' E 001°40'0 0.1
2018-Jun-13 08:00N 51°54' E 001°40'0 0.0
2018-Jun-13 07:30N 51°54' E 001°40'0 0.0
2018-Jun-13 07:00N 51°54' E 001°40'0 0.0
2018-Jun-13 06:30N 51°54' E 001°40'0 0.0
2018-Jun-13 06:00N 51°54' E 001°40'0 0.5
2018-Jun-13 05:30N 51°54' E 001°40'3 6.9
2018-Jun-13 05:00N 51°52' E 001°45'510.2
2018-Jun-13 04:30N 51°50' E 001°52'5 9.7
2018-Jun-13 04:00N 51°52' E 001°59'5 9.5
2018-Jun-13 03:30N 51°54' E 002°06'5 9.1
2018-Jun-13 03:00N 51°56' E 002°13'22 8.8
2018-Jun-13 00:32N 52°03' E 002°46'0 9.4
2018-Jun-13 00:29N 52°03' E 002°47'7 8.6
2018-Jun-12 23:41N 52°02' E 002°58'2 9.2
2018-Jun-12 23:27N 52°02' E 003°02'4 9.0
2018-Jun-12 22:59N 52°02' E 003°08'4 9.1
2018-Jun-12 22:30N 52°02' E 003°15'5 9.4
2018-Jun-12 22:00N 52°03' E 003°23'5 9.6
2018-Jun-12 21:30N 52°03' E 003°31'5 9.6
2018-Jun-12 21:00N 52°03' E 003°39'5 9.5
2018-Jun-12 20:30N 52°02' E 003°46'5 9.5
2018-Jun-12 20:00N 52°03' E 003°54'510.0
2018-Jun-12 19:30N 52°00' E 004°01'611.9
2018-Jun-12 19:00N 51°57' E 004°10'612.4
2018-Jun-12 18:30N 51°54' E 004°18'5 9.6
2018-Jun-12 18:00N 51°51' E 004°23'5 9.7
2018-Jun-12 17:30N 51°50' E 004°31'4 8.2
2018-Jun-12 17:01N 51°48' E 004°37'1 1.6
2018-Jun-12 16:21N 51°47' E 004°38'0 0.0
2018-Jun-12 15:48N 51°47' E 004°38'0 0.0
2018-Jun-12 15:24N 51°47' E 004°38'0 0.0
2018-Jun-12 15:00N 51°47' E 004°38'0 0.0
2018-Jun-12 14:21N 51°47' E 004°38'0 0.0
2018-Jun-12 10:54N 51°47' E 004°38'0 0.0
2018-Jun-12 10:30N 51°47' E 004°38'0 0.0
2018-Jun-12 09:30N 51°47' E 004°38'0 0.0
2018-Jun-12 08:45N 51°47' E 004°38'0 0.0
2018-Jun-12 08:24N 51°47' E 004°38'0 0.0
2018-Jun-12 08:00N 51°47' E 004°38'0 0.0
2018-Jun-12 07:24N 51°47' E 004°38'0 0.0
2018-Jun-12 06:48N 51°47' E 004°38'0 0.0
2018-Jun-12 04:42N 51°47' E 004°38'0 0.0
2018-Jun-12 04:21N 51°47' E 004°38'0 0.0
2018-Jun-12 03:51N 51°47' E 004°38'0 0.0
2018-Jun-12 03:27N 51°47' E 004°38'0 0.0
2018-Jun-12 02:27N 51°47' E 004°38'0 0.0
2018-Jun-12 01:48N 51°47' E 004°38'0 0.0
2018-Jun-12 01:30N 51°47' E 004°38'0 0.0
2018-Jun-12 00:42N 51°47' E 004°38'0 0.0
2018-Jun-12 00:24N 51°47' E 004°38'0 0.0
2018-Jun-11 23:54N 51°47' E 004°38'0 0.0
2018-Jun-11 23:24N 51°47' E 004°38'0 0.0
2018-Jun-11 22:42N 51°47' E 004°38'0 0.0
2018-Jun-11 22:30N 51°47' E 004°38'0 0.0
2018-Jun-11 22:00N 51°47' E 004°38'0 0.0
2018-Jun-11 20:21N 51°47' E 004°38'0 0.0
2018-Jun-11 20:00N 51°47' E 004°38'0 0.0
2018-Jun-11 19:21N 51°47' E 004°38'0 0.0
2018-Jun-11 19:00N 51°47' E 004°38'0 0.0
2018-Jun-11 18:27N 51°47' E 004°38'0 0.0
2018-Jun-11 18:00N 51°47' E 004°38'0 0.0
2018-Jun-11 17:21N 51°47' E 004°38'0 0.0
2018-Jun-11 16:54N 51°47' E 004°38'0 0.0
2018-Jun-11 16:27N 51°47' E 004°38'0 0.0
2018-Jun-11 15:57N 51°47' E 004°38'0 0.0
2018-Jun-11 15:27N 51°47' E 004°38'0 0.0
2018-Jun-11 14:57N 51°47' E 004°38'0 0.0
2018-Jun-11 14:30N 51°47' E 004°38'0 0.4
2018-Jun-11 14:00N 51°48' E 004°38'3 6.0
2018-Jun-11 13:30N 51°49' E 004°34'4 8.7
2018-Jun-11 13:00N 51°50' E 004°27'5 9.3
2018-Jun-11 12:30N 51°52' E 004°20'2 4.0
2018-Jun-11 12:00N 51°53' E 004°18'0 0.1
2018-Jun-11 11:26N 51°53' E 004°18'0 0.0
2018-Jun-11 10:59N 51°53' E 004°18'0 0.0
2018-Jun-11 10:29N 51°53' E 004°18'0 0.0
2018-Jun-11 09:59N 51°53' E 004°18'0 0.0
2018-Jun-11 09:29N 51°53' E 004°18'0 0.0
2018-Jun-11 08:59N 51°53' E 004°18'0 0.0
2018-Jun-11 08:29N 51°53' E 004°18'0 0.0
2018-Jun-11 07:59N 51°53' E 004°18'0 0.0
2018-Jun-11 07:29N 51°53' E 004°18'0 0.0
2018-Jun-11 06:59N 51°53' E 004°18'0 0.0
2018-Jun-11 06:29N 51°53' E 004°18'0 0.0
2018-Jun-11 05:59N 51°53' E 004°18'0 0.0
2018-Jun-11 05:29N 51°53' E 004°18'0 0.0
2018-Jun-11 04:59N 51°53' E 004°18'0 0.0
2018-Jun-11 04:29N 51°53' E 004°18'0 0.0
2018-Jun-11 03:59N 51°53' E 004°18'0 0.0
2018-Jun-11 03:29N 51°53' E 004°18'0 0.0
2018-Jun-11 02:59N 51°53' E 004°18'0 0.0
2018-Jun-11 02:29N 51°53' E 004°18'0 0.0
2018-Jun-11 01:59N 51°53' E 004°18'0 0.0
2018-Jun-11 01:29N 51°53' E 004°18'0 0.0
2018-Jun-11 00:59N 51°53' E 004°18'0 0.0
2018-Jun-11 00:29N 51°53' E 004°18'0 0.0
2018-Jun-10 23:59N 51°53' E 004°18'0 0.0
2018-Jun-10 23:26N 51°53' E 004°18'0 0.0
2018-Jun-10 22:59N 51°53' E 004°18'0 0.0
2018-Jun-10 22:29N 51°53' E 004°18'0 0.0
2018-Jun-10 21:59N 51°53' E 004°18'0 0.0
2018-Jun-10 21:29N 51°53' E 004°18'0 0.0
2018-Jun-10 20:59N 51°53' E 004°18'0 0.0
2018-Jun-10 20:29N 51°53' E 004°18'0 0.0
2018-Jun-10 19:59N 51°53' E 004°18'0 0.0
2018-Jun-10 19:29N 51°53' E 004°18'0 0.0
2018-Jun-10 18:59N 51°53' E 004°18'0 0.0
2018-Jun-10 18:29N 51°53' E 004°18'0 0.0
2018-Jun-10 17:59N 51°53' E 004°18'0 0.0
2018-Jun-10 17:29N 51°53' E 004°18'1 1.7
2018-Jun-10 16:55N 51°53' E 004°16'0 0.0
2018-Jun-10 16:28N 51°53' E 004°16'0 0.0
2018-Jun-10 15:55N 51°53' E 004°16'0 0.0
2018-Jun-10 15:25N 51°53' E 004°16'0 0.0
2018-Jun-10 14:58N 51°53' E 004°16'0 0.0
2018-Jun-10 13:55N 51°53' E 004°16'0 0.0
2018-Jun-10 13:25N 51°53' E 004°16'0 0.0
2018-Jun-10 12:58N 51°53' E 004°16'0 0.0
2018-Jun-10 12:19N 51°53' E 004°16'0 0.0
2018-Jun-10 11:58N 51°53' E 004°16'0 0.0
2018-Jun-10 11:28N 51°53' E 004°16'0 0.0
2018-Jun-10 10:58N 51°53' E 004°16'0 0.0
2018-Jun-10 10:25N 51°53' E 004°16'0 0.0
2018-Jun-10 09:58N 51°53' E 004°16'0 0.0
2018-Jun-10 09:25N 51°53' E 004°16'0 0.0
2018-Jun-10 08:55N 51°53' E 004°16'0 0.0
2018-Jun-10 08:25N 51°53' E 004°16'0 0.0
2018-Jun-10 07:58N 51°53' E 004°16'0 0.0
2018-Jun-10 07:25N 51°53' E 004°16'0 0.0
2018-Jun-10 06:55N 51°53' E 004°16'0 0.0
2018-Jun-10 06:25N 51°53' E 004°16'0 0.0
2018-Jun-10 05:55N 51°53' E 004°16'0 0.0
2018-Jun-10 05:25N 51°53' E 004°16'0 0.0
2018-Jun-10 04:58N 51°53' E 004°16'0 0.0
2018-Jun-10 04:22N 51°53' E 004°16'0 0.0
2018-Jun-10 03:55N 51°53' E 004°16'0 0.0
2018-Jun-10 03:16N 51°53' E 004°16'0 0.0
2018-Jun-10 02:55N 51°53' E 004°16'0 0.0
2018-Jun-10 02:25N 51°53' E 004°16'0 0.0
2018-Jun-10 01:55N 51°53' E 004°16'0 0.0
2018-Jun-10 01:25N 51°53' E 004°16'0 0.0
2018-Jun-10 00:49N 51°53' E 004°16'0 0.0
2018-Jun-10 00:25N 51°53' E 004°16'0 0.0
2018-Jun-09 23:55N 51°53' E 004°16'0 0.0
2018-Jun-09 23:25N 51°53' E 004°16'0 0.0
2018-Jun-09 22:55N 51°53' E 004°16'0 0.0
2018-Jun-09 22:25N 51°53' E 004°16'0 0.0
2018-Jun-09 21:55N 51°53' E 004°16'0 0.0
2018-Jun-09 21:25N 51°53' E 004°16'0 0.0
2018-Jun-09 20:55N 51°53' E 004°16'0 0.0
2018-Jun-09 20:19N 51°53' E 004°16'0 0.0
2018-Jun-09 19:55N 51°53' E 004°16'0 0.0
2018-Jun-09 19:28N 51°53' E 004°16'0 0.0
2018-Jun-09 18:49N 51°53' E 004°16'0 0.0
2018-Jun-09 18:28N 51°53' E 004°16'0 0.0
2018-Jun-09 17:55N 51°53' E 004°16'0 0.0
2018-Jun-09 17:25N 51°53' E 004°16'0 0.0
2018-Jun-09 16:55N 51°53' E 004°16'0 0.0
2018-Jun-09 16:22N 51°53' E 004°16'0 0.0
2018-Jun-09 15:55N 51°53' E 004°16'0 0.0
2018-Jun-09 14:55N 51°53' E 004°16'0 0.1
2018-Jun-09 14:31N 51°53' E 004°16'1 1.7
2018-Jun-09 14:00N 51°53' E 004°17'2 4.0
2018-Jun-09 13:30N 51°55' E 004°15'4 8.8
2018-Jun-09 13:01N 51°57' E 004°10'5 9.5
2018-Jun-09 12:31N 51°59' E 004°03'510.1
2018-Jun-09 12:01N 51°60' E 003°55'510.3
2018-Jun-09 11:30N 51°59' E 003°46'510.8
2018-Jun-09 11:00N 51°58' E 003°38'611.2
2018-Jun-09 10:31N 51°56' E 003°29'611.2
2018-Jun-09 10:00N 51°55' E 003°20'611.1
2018-Jun-09 09:30N 51°54' E 003°11'611.1
2018-Jun-09 09:00N 51°52' E 003°03'611.2
2018-Jun-09 08:30N 51°50' E 002°54'611.0
2018-Jun-09 07:59N 51°48' E 002°46'510.9
2018-Jun-09 07:31N 51°46' E 002°38'510.4
2018-Jun-09 07:00N 51°42' E 002°32'510.3
2018-Jun-09 06:30N 51°38' E 002°26'510.2
2018-Jun-09 05:58N 51°34' E 002°21'5 9.9
2018-Jun-09 05:29N 51°30' E 002°16'5 9.5
2018-Jun-09 05:00N 51°27' E 002°11'4 9.0
2018-Jun-09 04:30N 51°23' E 002°07'5 9.4
2018-Jun-09 04:01N 51°19' E 002°07'4 8.4
2018-Jun-09 03:30N 51°14' E 002°06'4 8.8
2018-Jun-09 03:00N 51°12' E 001°60'4 8.9
2018-Jun-09 02:30N 51°09' E 001°54'4 8.9
2018-Jun-09 02:00N 51°07' E 001°48'4 8.9
2018-Jun-09 01:30N 51°04' E 001°43'5 9.1
2018-Jun-09 01:00N 51°00' E 001°38'5 9.2
2018-Jun-09 00:26N 50°56' E 001°33'4 9.1
2018-Jun-08 23:57N 50°53' E 001°29'4 9.7
2018-Jun-08 23:29N 50°48' E 001°28'5 9.9
2018-Jun-08 23:00N 50°44' E 001°25'510.3
2018-Jun-08 22:30N 50°39' E 001°20'910.2
2018-Jun-08 21:37N 50°33' E 001°10'8 9.9
2018-Jun-08 20:48N 50°29' E 000°59'1810.0
2018-Jun-08 19:02N 50°24' E 000°33'010.5
2018-Jun-08 19:00N 50°23' E 000°32'510.3
2018-Jun-08 18:30N 50°22' E 000°24'510.6
2018-Jun-08 18:00N 50°21' E 000°16'611.0
2018-Jun-08 17:29N 50°19' E 000°08'511.5
2018-Jun-08 17:01N 50°18' W 000°01'611.8
2018-Jun-08 16:30N 50°16' W 000°10'612.1
2018-Jun-08 16:00N 50°15' W 000°19'612.3
2018-Jun-08 15:31N 50°13' W 000°28'612.2
2018-Jun-08 15:00N 50°12' W 000°37'612.2
2018-Jun-08 14:30N 50°10' W 000°46'612.1
2018-Jun-08 14:01N 50°09' W 000°55'611.8
2018-Jun-08 13:30N 50°07' W 001°04'611.3
2018-Jun-08 13:00N 50°05' W 001°13'511.0
2018-Jun-08 12:30N 50°04' W 001°21'510.6
2018-Jun-08 12:01N 50°03' W 001°29'510.1
2018-Jun-08 11:31N 50°02' W 001°37'  
Track history (hours):
 
Tides and Currents Weather Stations Pressure Air Temp Water Temp Dewpoint Dewpoint Depression Visibility Wind Speed Wind Dir Waves Ship Positions

Hitra

Last reported at 2018-Jun-18 11:30 UTC. Time now 2018-Jun-18 11:41 UTC.
Position N 49°27' E 000°02'.

Length 107 m; draft 5.3 m.

Type: Ship. MMSI: 249421000.

Date/timePositionNaut miles runAvg speedWind from/ knotsBaromVisibWave heightAir tempDewpointWater temp
2018-Jun-18 11:30N 49°27' E 000°02'510.2
2018-Jun-18 11:01N 49°29' W 000°06'1 2.0
2018-Jun-18 10:29N 49°28' W 000°05'0 0.0
2018-Jun-18 09:59N 49°28' W 000°05'0 0.0
2018-Jun-18 09:29N 49°28' W 000°05'0 0.0
2018-Jun-18 08:59N 49°28' W 000°05'0 0.1
2018-Jun-18 08:29N 49°28' W 000°05'0 0.1
2018-Jun-18 07:59N 49°28' W 000°05'0 0.0
2018-Jun-18 07:29N 49°28' W 000°05'0 0.0
2018-Jun-18 06:59N 49°28' W 000°05'0 0.0
2018-Jun-18 06:29N 49°28' W 000°05'0 0.0
2018-Jun-18 05:59N 49°28' W 000°05'0 0.0
2018-Jun-18 05:29N 49°28' W 000°05'0 0.0
2018-Jun-18 04:59N 49°28' W 000°05'0 0.1
2018-Jun-18 04:29N 49°28' W 000°05'0 0.2
2018-Jun-18 03:59N 49°28' W 000°05'0 0.0
2018-Jun-18 03:29N 49°28' W 000°05'0 0.0
2018-Jun-18 02:59N 49°28' W 000°05'0 0.0
2018-Jun-18 02:29N 49°28' W 000°05'0 0.0
2018-Jun-18 01:59N 49°28' W 000°05'0 0.0
2018-Jun-18 01:29N 49°28' W 000°05'0 0.0
2018-Jun-18 00:59N 49°28' W 000°05'0 0.0
2018-Jun-18 00:29N 49°28' W 000°05'0 0.0
2018-Jun-17 23:59N 49°28' W 000°05'0 0.0
2018-Jun-17 23:29N 49°28' W 000°05'0 0.0
2018-Jun-17 22:59N 49°28' W 000°05'0 0.0
2018-Jun-17 22:29N 49°28' W 000°05'0 0.0
2018-Jun-17 21:59N 49°28' W 000°05'0 0.0
2018-Jun-17 21:29N 49°28' W 000°05'0 0.0
2018-Jun-17 20:59N 49°28' W 000°05'0 0.2
2018-Jun-17 20:29N 49°28' W 000°05'0 0.1
2018-Jun-17 19:59N 49°28' W 000°05'0 0.0
2018-Jun-17 19:29N 49°28' W 000°05'0 0.0
2018-Jun-17 18:59N 49°28' W 000°05'0 0.0
2018-Jun-17 18:29N 49°28' W 000°05'0 0.0
2018-Jun-17 17:59N 49°28' W 000°05'0 0.0
2018-Jun-17 17:29N 49°28' W 000°05'0 0.0
2018-Jun-17 16:59N 49°28' W 000°05'0 0.0
2018-Jun-17 16:29N 49°28' W 000°05'0 0.0
2018-Jun-17 15:59N 49°28' W 000°05'0 0.1
2018-Jun-17 15:29N 49°28' W 000°05'0 0.1
2018-Jun-17 14:59N 49°28' W 000°05'0 0.0
2018-Jun-17 14:29N 49°28' W 000°05'0 0.0
2018-Jun-17 13:59N 49°28' W 000°05'0 0.0
2018-Jun-17 13:29N 49°28' W 000°05'0 0.0
2018-Jun-17 12:59N 49°28' W 000°05'0 0.0
2018-Jun-17 12:26N 49°28' W 000°05'0 0.0
2018-Jun-17 11:59N 49°28' W 000°05'0 0.0
2018-Jun-17 11:29N 49°28' W 000°05'0 0.0
2018-Jun-17 10:59N 49°28' W 000°05'0 0.0
2018-Jun-17 10:29N 49°28' W 000°05'0 0.0
2018-Jun-17 09:59N 49°28' W 000°05'0 0.1
2018-Jun-17 09:30N 49°28' W 000°05'2 4.9
2018-Jun-17 09:00N 49°28' W 000°09'5 9.1
2018-Jun-17 08:30N 49°31' W 000°14'4 8.9
2018-Jun-17 08:00N 49°34' W 000°19'4 8.2
2018-Jun-17 07:30N 49°37' W 000°23'4 8.9
2018-Jun-17 07:00N 49°39' W 000°29'4 8.4
2018-Jun-17 06:30N 49°42' W 000°35'4 7.9
2018-Jun-17 05:58N 49°44' W 000°40'4 7.9
2018-Jun-17 05:30N 49°46' W 000°45'4 9.1
2018-Jun-17 05:00N 49°48' W 000°51'4 8.4
2018-Jun-17 04:30N 49°50' W 000°57'4 7.9
2018-Jun-17 03:58N 49°53' W 001°02'4 7.7
2018-Jun-17 03:30N 49°55' W 001°07'5 7.2
2018-Jun-17 02:52N 49°56' W 001°14'5 7.1
2018-Jun-17 02:10N 49°57' W 001°21'1 7.5
2018-Jun-17 01:59N 49°58' W 001°23'38 7.1
2018-Jun-16 20:32N 50°21' W 000°35'0 8.0
2018-Jun-16 20:28N 50°21' W 000°34'9 7.9
2018-Jun-16 19:23N 50°24' W 000°21'5 8.2
2018-Jun-16 18:44N 50°25' W 000°13'3 8.7
2018-Jun-16 18:20N 50°26' W 000°08'17 9.1
2018-Jun-16 16:31N 50°31' E 000°17'0 8.9
2018-Jun-16 16:30N 50°31' E 000°17'5 9.7
2018-Jun-16 15:58N 50°33' E 000°25'5 9.5
2018-Jun-16 15:30N 50°34' E 000°32'510.2
2018-Jun-16 15:00N 50°36' E 000°39'510.2
2018-Jun-16 14:30N 50°39' E 000°45'5 9.7
2018-Jun-16 14:00N 50°42' E 000°51'5 9.0
2018-Jun-16 13:30N 50°45' E 000°57'4 8.6
2018-Jun-16 13:00N 50°48' E 001°02'4 8.6
2018-Jun-16 12:30N 50°50' E 001°08'4 8.4
2018-Jun-16 12:00N 50°53' E 001°13'4 8.8
2018-Jun-16 11:30N 50°55' E 001°19'5 9.8
2018-Jun-16 11:00N 50°59' E 001°24'611.7
2018-Jun-16 10:30N 51°03' E 001°30'713.3
2018-Jun-16 10:00N 51°08' E 001°37'612.2
2018-Jun-16 09:30N 51°13' E 001°42'612.9
2018-Jun-16 09:00N 51°20' E 001°39'612.0
2018-Jun-16 08:30N 51°24' E 001°33'510.9
2018-Jun-16 08:00N 51°28' E 001°27'612.3
2018-Jun-16 07:30N 51°29' E 001°17'612.5
2018-Jun-16 07:00N 51°29' E 001°07'612.4
2018-Jun-16 06:30N 51°29' E 000°57'713.2
2018-Jun-16 06:01N 51°29' E 000°46'714.2
2018-Jun-16 05:30N 51°30' E 000°35'611.6
2018-Jun-16 05:00N 51°28' E 000°27'510.3
2018-Jun-16 04:31N 51°28' E 000°18'2 3.1
2018-Jun-16 04:00N 51°28' E 000°16'0 0.0
2018-Jun-16 03:30N 51°28' E 000°16'0 0.0
2018-Jun-16 03:01N 51°28' E 000°16'0 0.0
2018-Jun-16 02:31N 51°28' E 000°16'0 0.0
2018-Jun-16 02:00N 51°28' E 000°16'0 0.0
2018-Jun-16 01:31N 51°28' E 000°16'0 0.0
2018-Jun-16 01:00N 51°28' E 000°16'0 0.0
2018-Jun-16 00:30N 51°28' E 000°16'0 0.0
2018-Jun-16 00:00N 51°28' E 000°16'0 0.0
2018-Jun-15 23:31N 51°28' E 000°16'0 0.0
2018-Jun-15 23:01N 51°28' E 000°16'0 0.0
2018-Jun-15 22:30N 51°28' E 000°16'0 0.0
2018-Jun-15 22:00N 51°28' E 000°16'0 0.0
2018-Jun-15 21:31N 51°28' E 000°16'0 0.0
2018-Jun-15 21:01N 51°28' E 000°16'0 0.0
2018-Jun-15 20:31N 51°28' E 000°16'0 0.0
2018-Jun-15 20:00N 51°28' E 000°16'0 0.0
2018-Jun-15 19:31N 51°28' E 000°16'0 0.0
2018-Jun-15 19:01N 51°28' E 000°16'0 0.0
2018-Jun-15 18:31N 51°28' E 000°16'0 0.0
2018-Jun-15 18:00N 51°28' E 000°16'0 0.0
2018-Jun-15 17:31N 51°28' E 000°16'0 0.0
2018-Jun-15 17:01N 51°28' E 000°16'0 0.0
2018-Jun-15 16:30N 51°28' E 000°16'0 0.0
2018-Jun-15 16:00N 51°28' E 000°16'0 0.0
2018-Jun-15 15:31N 51°28' E 000°16'0 0.0
2018-Jun-15 15:01N 51°28' E 000°16'0 0.0
2018-Jun-15 14:30N 51°28' E 000°16'0 0.0
2018-Jun-15 14:00N 51°28' E 000°16'0 0.0
2018-Jun-15 13:31N 51°28' E 000°16'0 0.0
2018-Jun-15 13:01N 51°28' E 000°16'0 0.0
2018-Jun-15 12:30N 51°28' E 000°16'0 0.0
2018-Jun-15 12:01N 51°28' E 000°16'0 0.0
2018-Jun-15 11:31N 51°28' E 000°16'0 0.0
2018-Jun-15 11:01N 51°28' E 000°16'0 0.0
2018-Jun-15 10:30N 51°28' E 000°16'0 0.0
2018-Jun-15 10:00N 51°28' E 000°16'0 0.0
2018-Jun-15 09:31N 51°28' E 000°16'0 0.0
2018-Jun-15 09:01N 51°28' E 000°16'0 0.0
2018-Jun-15 08:31N 51°28' E 000°16'0 0.0
2018-Jun-15 08:01N 51°28' E 000°16'0 0.0
2018-Jun-15 07:31N 51°28' E 000°16'0 0.0
2018-Jun-15 07:01N 51°28' E 000°16'0 0.0
2018-Jun-15 06:31N 51°28' E 000°16'0 0.0
2018-Jun-15 06:00N 51°28' E 000°16'0 0.0
2018-Jun-15 05:30N 51°28' E 000°16'0 0.0
2018-Jun-15 05:01N 51°28' E 000°16'0 0.0
2018-Jun-15 04:30N 51°28' E 000°16'0 0.0
2018-Jun-15 04:00N 51°28' E 000°16'0 0.0
2018-Jun-15 03:31N 51°28' E 000°16'0 0.0
2018-Jun-15 03:01N 51°28' E 000°16'0 0.1
2018-Jun-15 02:31N 51°28' E 000°16'2 4.2
2018-Jun-15 02:01N 51°28' E 000°19'4 7.8
2018-Jun-15 01:30N 51°27' E 000°26'5 9.1
2018-Jun-15 01:01N 51°30' E 000°31'611.5
2018-Jun-15 00:30N 51°30' E 000°40'612.2
2018-Jun-15 00:00N 51°30' E 000°50'612.2
2018-Jun-14 23:31N 51°30' E 000°60'5 9.1
2018-Jun-14 23:00N 51°30' E 001°07'612.2
2018-Jun-14 22:30N 51°29' E 001°17'611.9
2018-Jun-14 22:00N 51°28' E 001°26'4 7.6
2018-Jun-14 21:30N 51°27' E 001°32'612.7
2018-Jun-14 21:00N 51°32' E 001°38'713.7
2018-Jun-14 20:30N 51°38' E 001°44'713.3
2018-Jun-14 20:00N 51°44' E 001°43'612.8
2018-Jun-14 19:30N 51°51' E 001°41'3 6.6
2018-Jun-14 19:00N 51°54' E 001°40'0 0.2
2018-Jun-14 18:30N 51°54' E 001°40'0 0.2
2018-Jun-14 18:00N 51°54' E 001°40'0 0.0
2018-Jun-14 17:30N 51°54' E 001°40'0 0.0
2018-Jun-14 17:00N 51°54' E 001°40'0 0.0
2018-Jun-14 16:30N 51°54' E 001°40'0 0.0
2018-Jun-14 16:00N 51°54' E 001°40'0 0.0
2018-Jun-14 15:30N 51°54' E 001°40'0 0.0
2018-Jun-14 15:00N 51°54' E 001°40'0 0.0
2018-Jun-14 14:30N 51°54' E 001°40'0 0.0
2018-Jun-14 14:00N 51°54' E 001°40'0 0.0
2018-Jun-14 13:30N 51°54' E 001°40'0 0.0
2018-Jun-14 13:00N 51°54' E 001°40'0 0.1
2018-Jun-14 12:30N 51°54' E 001°40'0 0.0
2018-Jun-14 12:00N 51°54' E 001°40'0 0.0
2018-Jun-14 11:30N 51°54' E 001°40'0 0.1
2018-Jun-14 11:00N 51°54' E 001°40'0 0.3
2018-Jun-14 10:30N 51°54' E 001°40'0 0.1
2018-Jun-14 10:00N 51°54' E 001°40'0 0.0
2018-Jun-14 09:30N 51°54' E 001°40'0 0.0
2018-Jun-14 09:00N 51°54' E 001°40'0 0.0
2018-Jun-14 08:30N 51°54' E 001°40'0 0.0
2018-Jun-14 08:00N 51°54' E 001°40'0 0.4
2018-Jun-14 07:30N 51°54' E 001°40'0 0.1
2018-Jun-14 07:00N 51°54' E 001°40'0 0.0
2018-Jun-14 06:30N 51°54' E 001°40'0 0.0
2018-Jun-14 06:00N 51°54' E 001°40'0 0.0
2018-Jun-14 05:30N 51°54' E 001°40'0 0.0
2018-Jun-14 05:00N 51°54' E 001°40'0 0.0
2018-Jun-14 04:30N 51°54' E 001°40'0 0.0
2018-Jun-14 04:00N 51°54' E 001°40'0 0.0
2018-Jun-14 03:30N 51°54' E 001°40'0 0.0
2018-Jun-14 03:00N 51°54' E 001°40'0 0.0
2018-Jun-14 02:30N 51°54' E 001°40'0 0.0
2018-Jun-14 02:00N 51°54' E 001°40'0 0.0
2018-Jun-14 01:30N 51°54' E 001°40'0 0.0
2018-Jun-14 01:00N 51°54' E 001°40'0 0.0
2018-Jun-14 00:30N 51°54' E 001°40'0 0.0
2018-Jun-14 00:00N 51°54' E 001°40'0 0.0
2018-Jun-13 23:30N 51°54' E 001°40'0 0.2
2018-Jun-13 23:00N 51°54' E 001°40'0 0.2
2018-Jun-13 22:30N 51°54' E 001°40'0 0.0
2018-Jun-13 22:00N 51°54' E 001°40'0 0.0
2018-Jun-13 21:30N 51°54' E 001°40'0 0.0
2018-Jun-13 21:00N 51°54' E 001°40'0 0.0
2018-Jun-13 20:30N 51°54' E 001°40'0 0.0
2018-Jun-13 20:00N 51°54' E 001°40'0 0.0
2018-Jun-13 19:30N 51°54' E 001°40'0 0.0
2018-Jun-13 18:57N 51°54' E 001°40'0 0.1
2018-Jun-13 18:30N 51°54' E 001°40'0 0.3
2018-Jun-13 18:00N 51°54' E 001°40'0 0.1
2018-Jun-13 17:30N 51°54' E 001°40'0 0.1
2018-Jun-13 17:00N 51°54' E 001°40'0 0.0
2018-Jun-13 16:30N 51°54' E 001°40'0 0.0
2018-Jun-13 16:00N 51°54' E 001°40'0 0.0
2018-Jun-13 15:30N 51°54' E 001°40'0 0.0
2018-Jun-13 15:00N 51°54' E 001°40'0 0.0
2018-Jun-13 14:30N 51°54' E 001°40'0 0.0
2018-Jun-13 14:00N 51°54' E 001°40'0 0.0
2018-Jun-13 13:30N 51°54' E 001°40'0 0.0
2018-Jun-13 13:00N 51°54' E 001°40'0 0.1
2018-Jun-13 12:30N 51°54' E 001°40'0 0.0
2018-Jun-13 12:00N 51°54' E 001°40'0 0.1
2018-Jun-13 11:30N 51°54' E 001°40'0 0.2
2018-Jun-13 11:00N 51°54' E 001°40'0 0.1
2018-Jun-13 10:30N 51°54' E 001°40'0 0.0
2018-Jun-13 10:00N 51°54' E 001°40'0 0.0
2018-Jun-13 09:30N 51°54' E 001°40'0 0.0
2018-Jun-13 09:00N 51°54' E 001°40'0 0.0
2018-Jun-13 08:30N 51°54' E 001°40'0 0.1
2018-Jun-13 08:00N 51°54' E 001°40'0 0.0
2018-Jun-13 07:30N 51°54' E 001°40'0 0.0
2018-Jun-13 07:00N 51°54' E 001°40'0 0.0
2018-Jun-13 06:30N 51°54' E 001°40'0 0.0
2018-Jun-13 06:00N 51°54' E 001°40'0 0.5
2018-Jun-13 05:30N 51°54' E 001°40'3 6.9
2018-Jun-13 05:00N 51°52' E 001°45'510.2
2018-Jun-13 04:30N 51°50' E 001°52'5 9.7
2018-Jun-13 04:00N 51°52' E 001°59'5 9.5
2018-Jun-13 03:30N 51°54' E 002°06'5 9.1
2018-Jun-13 03:00N 51°56' E 002°13'22 8.8
2018-Jun-13 00:32N 52°03' E 002°46'0 9.4
2018-Jun-13 00:29N 52°03' E 002°47'7 8.6
2018-Jun-12 23:41N 52°02' E 002°58'2 9.2
2018-Jun-12 23:27N 52°02' E 003°02'4 9.0
2018-Jun-12 22:59N 52°02' E 003°08'4 9.1
2018-Jun-12 22:30N 52°02' E 003°15'5 9.4
2018-Jun-12 22:00N 52°03' E 003°23'5 9.6
2018-Jun-12 21:30N 52°03' E 003°31'5 9.6
2018-Jun-12 21:00N 52°03' E 003°39'5 9.5
2018-Jun-12 20:30N 52°02' E 003°46'5 9.5
2018-Jun-12 20:00N 52°03' E 003°54'510.0
2018-Jun-12 19:30N 52°00' E 004°01'611.9
2018-Jun-12 19:00N 51°57' E 004°10'612.4
2018-Jun-12 18:30N 51°54' E 004°18'5 9.6
2018-Jun-12 18:00N 51°51' E 004°23'5 9.7
2018-Jun-12 17:30N 51°50' E 004°31'4 8.2
2018-Jun-12 17:01N 51°48' E 004°37'1 1.6
2018-Jun-12 16:21N 51°47' E 004°38'0 0.0
2018-Jun-12 15:48N 51°47' E 004°38'0 0.0
2018-Jun-12 15:24N 51°47' E 004°38'0 0.0
2018-Jun-12 15:00N 51°47' E 004°38'0 0.0
2018-Jun-12 14:21N 51°47' E 004°38'0 0.0
2018-Jun-12 10:54N 51°47' E 004°38'0 0.0
2018-Jun-12 10:30N 51°47' E 004°38'0 0.0
2018-Jun-12 09:30N 51°47' E 004°38'0 0.0
2018-Jun-12 08:45N 51°47' E 004°38'0 0.0
2018-Jun-12 08:24N 51°47' E 004°38'0 0.0
2018-Jun-12 08:00N 51°47' E 004°38'0 0.0
2018-Jun-12 07:24N 51°47' E 004°38'0 0.0
2018-Jun-12 06:48N 51°47' E 004°38'0 0.0
2018-Jun-12 04:42N 51°47' E 004°38'0 0.0
2018-Jun-12 04:21N 51°47' E 004°38'0 0.0
2018-Jun-12 03:51N 51°47' E 004°38'0 0.0
2018-Jun-12 03:27N 51°47' E 004°38'0 0.0
2018-Jun-12 02:27N 51°47' E 004°38'0 0.0
2018-Jun-12 01:48N 51°47' E 004°38'0 0.0
2018-Jun-12 01:30N 51°47' E 004°38'0 0.0
2018-Jun-12 00:42N 51°47' E 004°38'0 0.0
2018-Jun-12 00:24N 51°47' E 004°38'0 0.0
2018-Jun-11 23:54N 51°47' E 004°38'0 0.0
2018-Jun-11 23:24N 51°47' E 004°38'0 0.0
2018-Jun-11 22:42N 51°47' E 004°38'0 0.0
2018-Jun-11 22:30N 51°47' E 004°38'0 0.0
2018-Jun-11 22:00N 51°47' E 004°38'0 0.0
2018-Jun-11 20:21N 51°47' E 004°38'0 0.0
2018-Jun-11 20:00N 51°47' E 004°38'0 0.0
2018-Jun-11 19:21N 51°47' E 004°38'0 0.0
2018-Jun-11 19:00N 51°47' E 004°38'0 0.0
2018-Jun-11 18:27N 51°47' E 004°38'0 0.0
2018-Jun-11 18:00N 51°47' E 004°38'0 0.0
2018-Jun-11 17:21N 51°47' E 004°38'0 0.0
2018-Jun-11 16:54N 51°47' E 004°38'0 0.0
2018-Jun-11 16:27N 51°47' E 004°38'0 0.0
2018-Jun-11 15:57N 51°47' E 004°38'0 0.0
2018-Jun-11 15:27N 51°47' E 004°38'0 0.0
2018-Jun-11 14:57N 51°47' E 004°38'0 0.0
2018-Jun-11 14:30N 51°47' E 004°38'0 0.4
2018-Jun-11 14:00N 51°48' E 004°38'3 6.0
2018-Jun-11 13:30N 51°49' E 004°34'4 8.7
2018-Jun-11 13:00N 51°50' E 004°27'5 9.3
2018-Jun-11 12:30N 51°52' E 004°20'2 4.0
2018-Jun-11 12:00N 51°53' E 004°18'0 0.1
2018-Jun-11 11:26N 51°53' E 004°18'0 0.0
2018-Jun-11 10:59N 51°53' E 004°18'0 0.0
2018-Jun-11 10:29N 51°53' E 004°18'0 0.0
2018-Jun-11 09:59N 51°53' E 004°18'0 0.0
2018-Jun-11 09:29N 51°53' E 004°18'0 0.0
2018-Jun-11 08:59N 51°53' E 004°18'0 0.0
2018-Jun-11 08:29N 51°53' E 004°18'0 0.0
2018-Jun-11 07:59N 51°53' E 004°18'0 0.0
2018-Jun-11 07:29N 51°53' E 004°18'0 0.0
2018-Jun-11 06:59N 51°53' E 004°18'0 0.0
2018-Jun-11 06:29N 51°53' E 004°18'0 0.0
2018-Jun-11 05:59N 51°53' E 004°18'0 0.0
2018-Jun-11 05:29N 51°53' E 004°18'0 0.0
2018-Jun-11 04:59N 51°53' E 004°18'0 0.0
2018-Jun-11 04:29N 51°53' E 004°18'0 0.0
2018-Jun-11 03:59N 51°53' E 004°18'0 0.0
2018-Jun-11 03:29N 51°53' E 004°18'0 0.0
2018-Jun-11 02:59N 51°53' E 004°18'0 0.0
2018-Jun-11 02:29N 51°53' E 004°18'0 0.0
2018-Jun-11 01:59N 51°53' E 004°18'0 0.0
2018-Jun-11 01:29N 51°53' E 004°18'0 0.0
2018-Jun-11 00:59N 51°53' E 004°18'0 0.0
2018-Jun-11 00:29N 51°53' E 004°18'0 0.0
2018-Jun-10 23:59N 51°53' E 004°18'0 0.0
2018-Jun-10 23:26N 51°53' E 004°18'0 0.0
2018-Jun-10 22:59N 51°53' E 004°18'0 0.0
2018-Jun-10 22:29N 51°53' E 004°18'0 0.0
2018-Jun-10 21:59N 51°53' E 004°18'0 0.0
2018-Jun-10 21:29N 51°53' E 004°18'0 0.0
2018-Jun-10 20:59N 51°53' E 004°18'0 0.0
2018-Jun-10 20:29N 51°53' E 004°18'0 0.0
2018-Jun-10 19:59N 51°53' E 004°18'0 0.0
2018-Jun-10 19:29N 51°53' E 004°18'0 0.0
2018-Jun-10 18:59N 51°53' E 004°18'0 0.0
2018-Jun-10 18:29N 51°53' E 004°18'0 0.0
2018-Jun-10 17:59N 51°53' E 004°18'0 0.0
2018-Jun-10 17:29N 51°53' E 004°18'1 1.7
2018-Jun-10 16:55N 51°53' E 004°16'0 0.0
2018-Jun-10 16:28N 51°53' E 004°16'0 0.0
2018-Jun-10 15:55N 51°53' E 004°16'0 0.0
2018-Jun-10 15:25N 51°53' E 004°16'0 0.0
2018-Jun-10 14:58N 51°53' E 004°16'0 0.0
2018-Jun-10 13:55N 51°53' E 004°16'0 0.0
2018-Jun-10 13:25N 51°53' E 004°16'0 0.0
2018-Jun-10 12:58N 51°53' E 004°16'0 0.0
2018-Jun-10 12:19N 51°53' E 004°16'0 0.0
2018-Jun-10 11:58N 51°53' E 004°16'0 0.0
2018-Jun-10 11:28N 51°53' E 004°16'0 0.0
2018-Jun-10 10:58N 51°53' E 004°16'0 0.0
2018-Jun-10 10:25N 51°53' E 004°16'0 0.0
2018-Jun-10 09:58N 51°53' E 004°16'0 0.0
2018-Jun-10 09:25N 51°53' E 004°16'0 0.0
2018-Jun-10 08:55N 51°53' E 004°16'0 0.0
2018-Jun-10 08:25N 51°53' E 004°16'0 0.0
2018-Jun-10 07:58N 51°53' E 004°16'0 0.0
2018-Jun-10 07:25N 51°53' E 004°16'0 0.0
2018-Jun-10 06:55N 51°53' E 004°16'0 0.0
2018-Jun-10 06:25N 51°53' E 004°16'0 0.0
2018-Jun-10 05:55N 51°53' E 004°16'0 0.0
2018-Jun-10 05:25N 51°53' E 004°16'0 0.0
2018-Jun-10 04:58N 51°53' E 004°16'0 0.0
2018-Jun-10 04:22N 51°53' E 004°16'0 0.0
2018-Jun-10 03:55N 51°53' E 004°16'0 0.0
2018-Jun-10 03:16N 51°53' E 004°16'0 0.0
2018-Jun-10 02:55N 51°53' E 004°16'0 0.0
2018-Jun-10 02:25N 51°53' E 004°16'0 0.0
2018-Jun-10 01:55N 51°53' E 004°16'0 0.0
2018-Jun-10 01:25N 51°53' E 004°16'0 0.0
2018-Jun-10 00:49N 51°53' E 004°16'0 0.0
2018-Jun-10 00:25N 51°53' E 004°16'0 0.0
2018-Jun-09 23:55N 51°53' E 004°16'0 0.0
2018-Jun-09 23:25N 51°53' E 004°16'0 0.0
2018-Jun-09 22:55N 51°53' E 004°16'0 0.0
2018-Jun-09 22:25N 51°53' E 004°16'0 0.0
2018-Jun-09 21:55N 51°53' E 004°16'0 0.0
2018-Jun-09 21:25N 51°53' E 004°16'0 0.0
2018-Jun-09 20:55N 51°53' E 004°16'0 0.0
2018-Jun-09 20:19N 51°53' E 004°16'0 0.0
2018-Jun-09 19:55N 51°53' E 004°16'0 0.0
2018-Jun-09 19:28N 51°53' E 004°16'0 0.0
2018-Jun-09 18:49N 51°53' E 004°16'0 0.0
2018-Jun-09 18:28N 51°53' E 004°16'0 0.0
2018-Jun-09 17:55N 51°53' E 004°16'0 0.0
2018-Jun-09 17:25N 51°53' E 004°16'0 0.0
2018-Jun-09 16:55N 51°53' E 004°16'0 0.0
2018-Jun-09 16:22N 51°53' E 004°16'0 0.0
2018-Jun-09 15:55N 51°53' E 004°16'0 0.0
2018-Jun-09 14:55N 51°53' E 004°16'0 0.1
2018-Jun-09 14:31N 51°53' E 004°16'1 1.7
2018-Jun-09 14:00N 51°53' E 004°17'2 4.0
2018-Jun-09 13:30N 51°55' E 004°15'4 8.8
2018-Jun-09 13:01N 51°57' E 004°10'5 9.5
2018-Jun-09 12:31N 51°59' E 004°03'510.1
2018-Jun-09 12:01N 51°60' E 003°55'510.3
2018-Jun-09 11:30N 51°59' E 003°46'510.8
2018-Jun-09 11:00N 51°58' E 003°38'611.2
2018-Jun-09 10:31N 51°56' E 003°29'611.2
2018-Jun-09 10:00N 51°55' E 003°20'611.1
2018-Jun-09 09:30N 51°54' E 003°11'611.1
2018-Jun-09 09:00N 51°52' E 003°03'611.2
2018-Jun-09 08:30N 51°50' E 002°54'611.0
2018-Jun-09 07:59N 51°48' E 002°46'510.9
2018-Jun-09 07:31N 51°46' E 002°38'510.4
2018-Jun-09 07:00N 51°42' E 002°32'510.3
2018-Jun-09 06:30N 51°38' E 002°26'510.2
2018-Jun-09 05:58N 51°34' E 002°21'5 9.9
2018-Jun-09 05:29N 51°30' E 002°16'5 9.5
2018-Jun-09 05:00N 51°27' E 002°11'4 9.0
2018-Jun-09 04:30N 51°23' E 002°07'5 9.4
2018-Jun-09 04:01N 51°19' E 002°07'4 8.4
2018-Jun-09 03:30N 51°14' E 002°06'4 8.8
2018-Jun-09 03:00N 51°12' E 001°60'4 8.9
2018-Jun-09 02:30N 51°09' E 001°54'4 8.9
2018-Jun-09 02:00N 51°07' E 001°48'4 8.9
2018-Jun-09 01:30N 51°04' E 001°43'5 9.1
2018-Jun-09 01:00N 51°00' E 001°38'5 9.2
2018-Jun-09 00:26N 50°56' E 001°33'4 9.1
2018-Jun-08 23:57N 50°53' E 001°29'4 9.7
2018-Jun-08 23:29N 50°48' E 001°28'5 9.9
2018-Jun-08 23:00N 50°44' E 001°25'510.3
2018-Jun-08 22:30N 50°39' E 001°20'910.2
2018-Jun-08 21:37N 50°33' E 001°10'8 9.9
2018-Jun-08 20:48N 50°29' E 000°59'1810.0
2018-Jun-08 19:02N 50°24' E 000°33'010.5
2018-Jun-08 19:00N 50°23' E 000°32'510.3
2018-Jun-08 18:30N 50°22' E 000°24'510.6
2018-Jun-08 18:00N 50°21' E 000°16'611.0
2018-Jun-08 17:29N 50°19' E 000°08'511.5
2018-Jun-08 17:01N 50°18' W 000°01'611.8
2018-Jun-08 16:30N 50°16' W 000°10'612.1
2018-Jun-08 16:00N 50°15' W 000°19'612.3
2018-Jun-08 15:31N 50°13' W 000°28'612.2
2018-Jun-08 15:00N 50°12' W 000°37'612.2
2018-Jun-08 14:30N 50°10' W 000°46'612.1
2018-Jun-08 14:01N 50°09' W 000°55'611.8
2018-Jun-08 13:30N 50°07' W 001°04'611.3
2018-Jun-08 13:00N 50°05' W 001°13'511.0
2018-Jun-08 12:30N 50°04' W 001°21'510.6
2018-Jun-08 12:01N 50°03' W 001°29'510.1
2018-Jun-08 11:31N 50°02' W 001°37'  

Dump ship's entire track history